createdAt,value
2023-05-15T00:00:16.761Z,5.20
2023-05-15T00:02:44.634Z,7.93
2023-05-15T00:05:12.212Z,5.00
2023-05-15T00:07:39.004Z,4.97
2023-05-15T00:10:06.644Z,4.40
2023-05-15T00:12:33.377Z,6.37
2023-05-15T00:14:59.974Z,8.13
2023-05-15T00:17:26.614Z,5.77
2023-05-15T00:19:57.452Z,6.33
2023-05-15T00:22:24.459Z,4.93
2023-05-15T00:24:51.052Z,5.33
2023-05-15T00:27:17.650Z,4.70
2023-05-15T00:29:44.230Z,4.80
2023-05-15T00:32:12.631Z,5.03
2023-05-15T00:34:39.260Z,4.70
2023-05-15T00:37:06.006Z,5.10
2023-05-15T00:39:32.584Z,5.00
2023-05-15T00:42:02.141Z,4.53
2023-05-15T00:44:33.561Z,4.90
2023-05-15T00:47:02.271Z,6.00
2023-05-15T00:49:29.989Z,6.10
2023-05-15T00:51:57.891Z,7.13
2023-05-15T00:54:24.978Z,5.53
2023-05-15T00:56:52.500Z,6.20
2023-05-15T00:59:20.456Z,5.97
2023-05-15T01:01:47.084Z,5.27
2023-05-15T01:04:13.848Z,4.87
2023-05-15T01:06:40.448Z,5.13
2023-05-15T01:09:08.292Z,6.33
2023-05-15T01:11:37.662Z,5.60
2023-05-15T01:14:06.014Z,4.67
2023-05-15T01:16:33.806Z,4.67
2023-05-15T01:19:02.976Z,5.90
2023-05-15T01:22:04.783Z,6.40
2023-05-15T01:25:02.202Z,5.00
2023-05-15T01:27:50.288Z,5.53
2023-05-15T01:30:32.533Z,5.30
2023-05-15T01:33:22.170Z,5.43
2023-05-15T01:36:07.456Z,7.63
2023-05-15T01:38:40.538Z,6.80
2023-05-15T01:41:16.399Z,6.70
2023-05-15T01:43:45.706Z,8.87
2023-05-15T01:46:19.718Z,5.23
2023-05-15T01:48:48.190Z,7.30
2023-05-15T01:51:16.075Z,6.23
2023-05-15T01:53:44.314Z,7.80
2023-05-15T01:56:14.487Z,5.70
2023-05-15T01:58:41.446Z,10.53
2023-05-15T02:01:10.684Z,7.13
2023-05-15T02:03:37.847Z,7.60
2023-05-15T02:06:05.941Z,7.27
2023-05-15T02:08:34.430Z,6.30
2023-05-15T02:11:03.204Z,6.13
2023-05-15T02:13:31.811Z,6.63
2023-05-15T02:15:58.567Z,8.70
2023-05-15T02:18:28.309Z,5.57
2023-05-15T02:20:57.717Z,6.83
2023-05-15T02:23:24.345Z,5.57
2023-05-15T02:26:09.669Z,7.23
2023-05-15T02:29:18.286Z,6.10
2023-05-15T02:32:00.744Z,6.33
2023-05-15T02:34:36.249Z,6.53
2023-05-15T02:37:06.080Z,6.90
2023-05-15T02:39:34.330Z,6.00
2023-05-15T02:42:01.719Z,5.43
2023-05-15T02:44:29.355Z,7.17
2023-05-15T02:46:57.357Z,6.43
2023-05-15T02:49:24.489Z,5.30
2023-05-15T02:51:51.101Z,7.07
2023-05-15T02:54:18.235Z,6.07
2023-05-15T02:56:44.878Z,7.87
2023-05-15T02:59:11.676Z,7.73
2023-05-15T03:01:38.620Z,6.70
2023-05-15T03:04:05.491Z,19.70
2023-05-15T03:06:32.162Z,39.57
2023-05-15T03:08:58.852Z,39.10
2023-05-15T03:11:25.498Z,48.77
2023-05-15T03:13:52.118Z,60.13
2023-05-15T03:16:18.770Z,59.60
2023-05-15T03:18:46.126Z,70.20
2023-05-15T03:21:13.542Z,70.30
2023-05-15T03:23:40.458Z,67.13
2023-05-15T03:26:07.042Z,78.67
2023-05-15T03:28:33.750Z,89.57
2023-05-15T03:31:00.447Z,86.43
2023-05-15T03:33:27.101Z,96.77
2023-05-15T03:35:53.716Z,89.13
2023-05-15T03:38:20.399Z,94.43
2023-05-15T03:40:48.424Z,93.17
2023-05-15T03:43:16.928Z,98.47
2023-05-15T03:45:44.184Z,98.73
2023-05-15T03:48:10.868Z,94.50
2023-05-15T03:50:37.561Z,85.40
2023-05-15T03:53:04.188Z,89.90
2023-05-15T03:55:30.852Z,88.40
2023-05-15T03:57:57.849Z,97.47
2023-05-15T04:00:24.822Z,86.60
2023-05-15T04:02:51.770Z,101.00
2023-05-15T04:05:19.684Z,90.47
2023-05-15T04:07:46.412Z,94.50
2023-05-15T04:10:13.141Z,96.47
2023-05-15T04:12:39.710Z,92.63
2023-05-15T04:15:19.559Z,95.23
2023-05-15T04:17:48.569Z,102.87
2023-05-15T04:20:17.039Z,106.00
2023-05-15T04:22:44.450Z,87.57
2023-05-15T04:25:11.943Z,99.50
2023-05-15T04:27:39.073Z,93.83
2023-05-15T04:30:06.773Z,93.17
2023-05-15T04:32:33.796Z,98.30
2023-05-15T04:35:01.559Z,93.87
2023-05-15T04:37:29.196Z,87.83
2023-05-15T04:39:55.816Z,89.20
2023-05-15T04:42:22.487Z,95.93
2023-05-15T04:44:49.246Z,99.27
2023-05-15T04:47:15.830Z,86.23
2023-05-15T04:49:42.447Z,83.30
2023-05-15T04:52:09.137Z,94.03
2023-05-15T04:54:35.815Z,83.33
2023-05-15T04:57:02.523Z,88.10
2023-05-15T04:59:29.670Z,103.97
2023-05-15T05:01:56.761Z,96.97
2023-05-15T05:04:23.536Z,91.47
2023-05-15T05:06:50.223Z,88.83
2023-05-15T05:09:18.945Z,92.27
2023-05-15T05:11:46.226Z,98.43
2023-05-15T05:14:14.689Z,92.43
2023-05-15T05:16:42.240Z,93.27
2023-05-15T05:19:09.140Z,109.30
2023-05-15T05:21:35.970Z,100.80
2023-05-15T05:24:02.609Z,93.83
2023-05-15T05:26:29.277Z,98.03
2023-05-15T05:28:55.932Z,105.13
2023-05-15T05:31:22.964Z,104.20
2023-05-15T05:33:49.607Z,105.63
2023-05-15T05:36:16.235Z,116.63
2023-05-15T05:38:43.041Z,109.43
2023-05-15T05:41:09.687Z,118.40
2023-05-15T05:43:36.274Z,111.50
2023-05-15T05:46:03.001Z,115.23
2023-05-15T05:48:30.681Z,103.53
2023-05-15T05:50:57.843Z,113.93
2023-05-15T05:53:24.547Z,101.80
2023-05-15T05:55:51.579Z,118.87
2023-05-15T06:00:51.076Z,112.77
2023-05-15T06:03:17.998Z,111.10
2023-05-15T06:05:44.694Z,94.90
2023-05-15T06:08:11.925Z,102.83
2023-05-15T06:10:38.774Z,91.73
2023-05-15T06:13:05.378Z,105.33
2023-05-15T06:15:31.960Z,85.67
2023-05-15T06:17:58.578Z,87.07
2023-05-15T06:20:25.522Z,93.43
2023-05-15T06:22:52.365Z,94.30
2023-05-15T06:25:19.077Z,94.67
2023-05-15T06:27:45.717Z,116.00
2023-05-15T06:30:12.980Z,90.30
2023-05-15T06:32:41.493Z,103.87
2023-05-15T06:35:09.582Z,110.50
2023-05-15T06:37:36.690Z,114.33
2023-05-15T06:40:04.587Z,114.33
2023-05-15T06:42:31.269Z,126.67
2023-05-15T06:44:57.941Z,117.47
2023-05-15T06:47:24.732Z,116.07
2023-05-15T06:49:51.391Z,124.33
2023-05-15T06:52:18.043Z,110.47
2023-05-15T06:54:44.742Z,117.77
2023-05-15T06:57:11.379Z,113.43
2023-05-15T06:59:38.005Z,104.73
2023-05-15T07:02:04.811Z,96.10
2023-05-15T07:04:31.587Z,113.57
2023-05-15T07:06:58.221Z,100.10
2023-05-15T07:09:25.295Z,125.73
2023-05-15T07:11:51.886Z,107.43
2023-05-15T07:14:18.624Z,115.77
2023-05-15T07:16:46.988Z,104.00
2023-05-15T07:19:17.104Z,98.10
2023-05-15T07:21:43.750Z,94.63
2023-05-15T07:24:10.350Z,84.63
2023-05-15T07:26:43.882Z,90.67
2023-05-15T07:29:17.165Z,94.53
2023-05-15T07:31:44.658Z,86.33
2023-05-15T07:34:11.836Z,80.40
2023-05-15T07:36:38.477Z,92.63
2023-05-15T07:39:05.102Z,84.60
2023-05-15T07:41:33.301Z,76.80
2023-05-15T07:43:59.880Z,76.70
2023-05-15T07:46:27.187Z,80.33
2023-05-15T07:48:54.563Z,82.47
2023-05-15T07:51:21.280Z,79.50
2023-05-15T07:53:47.867Z,60.93
2023-05-15T07:56:14.518Z,68.67
2023-05-15T07:58:41.167Z,61.87
2023-05-15T08:01:07.914Z,64.40
2023-05-15T08:03:34.544Z,69.50
2023-05-15T08:06:01.282Z,66.67
2023-05-15T08:08:27.933Z,56.13
2023-05-15T08:10:54.687Z,61.13
2023-05-15T08:13:21.284Z,61.53
2023-05-15T08:15:48.025Z,61.20
2023-05-15T08:18:14.702Z,66.13
2023-05-15T08:20:41.302Z,61.30
2023-05-15T08:23:08.104Z,67.67
2023-05-15T08:25:34.712Z,62.97
2023-05-15T08:28:02.340Z,59.90
2023-05-15T08:30:29.004Z,63.97
2023-05-15T08:32:55.730Z,59.50
2023-05-15T08:35:22.413Z,59.83
2023-05-15T08:37:49.117Z,62.60
2023-05-15T08:40:16.101Z,59.17
2023-05-15T08:42:52.733Z,63.63
2023-05-15T08:45:20.067Z,55.90
2023-05-15T08:47:46.969Z,59.10
2023-05-15T08:50:16.375Z,53.53
2023-05-15T08:52:45.635Z,53.70
2023-05-15T08:55:16.023Z,55.67
2023-05-15T08:57:43.924Z,53.67
2023-05-15T09:00:14.777Z,62.30
2023-05-15T09:02:42.831Z,59.50
2023-05-15T09:05:10.152Z,62.97
2023-05-15T09:07:39.080Z,59.50
2023-05-15T09:10:06.316Z,58.00
2023-05-15T09:12:34.552Z,58.90
2023-05-15T09:15:10.229Z,60.43
2023-05-15T09:17:37.374Z,57.67
2023-05-15T09:20:13.789Z,61.97
2023-05-15T09:22:40.688Z,53.20
2023-05-15T09:25:08.001Z,56.30
2023-05-15T09:27:43.172Z,55.67
2023-05-15T09:30:10.196Z,55.23
2023-05-15T09:32:38.047Z,56.30
2023-05-15T09:35:05.046Z,56.87
2023-05-15T09:37:34.000Z,62.43
2023-05-15T09:40:11.229Z,55.87
2023-05-15T09:42:38.657Z,56.77
2023-05-15T09:45:07.381Z,58.77
2023-05-15T09:47:34.489Z,59.37
2023-05-15T09:50:01.436Z,55.93
2023-05-15T09:52:30.030Z,53.20
2023-05-15T09:54:57.452Z,56.40
2023-05-15T09:57:24.136Z,64.13
2023-05-15T09:59:50.960Z,52.63
2023-05-15T10:02:27.825Z,56.40
2023-05-15T10:04:56.614Z,52.20
2023-05-15T10:07:30.108Z,60.40
2023-05-15T10:09:56.792Z,49.87
2023-05-15T10:12:24.687Z,50.13
2023-05-15T10:14:53.672Z,47.43
2023-05-15T10:17:21.289Z,49.13
2023-05-15T10:19:57.906Z,41.00
2023-05-15T10:22:30.876Z,40.93
2023-05-15T10:25:13.210Z,40.17
2023-05-15T10:27:40.618Z,45.87
2023-05-15T10:30:09.649Z,39.27
2023-05-15T10:32:37.219Z,40.70
2023-05-15T10:35:04.169Z,42.43
2023-05-15T10:37:31.470Z,38.20
2023-05-15T10:39:58.973Z,41.43
2023-05-15T10:42:28.635Z,39.80
2023-05-15T10:44:59.898Z,35.60
2023-05-15T10:47:27.193Z,37.50
2023-05-15T10:49:53.876Z,40.40
2023-05-15T10:52:21.116Z,38.00
2023-05-15T10:54:47.755Z,40.40
2023-05-15T10:57:15.089Z,35.20
2023-05-15T10:59:41.800Z,33.67
2023-05-15T11:02:31.356Z,30.13
2023-05-15T11:05:03.416Z,34.67
2023-05-15T11:07:30.126Z,35.70
2023-05-15T11:09:57.134Z,29.17
2023-05-15T11:12:24.563Z,30.00
2023-05-15T11:14:57.378Z,28.67
2023-05-15T11:17:24.509Z,34.80
2023-05-15T11:19:51.233Z,29.90
2023-05-15T11:22:20.991Z,29.93
2023-05-15T11:24:50.919Z,29.30
2023-05-15T11:27:23.692Z,27.50
2023-05-15T11:30:06.507Z,31.80
2023-05-15T11:32:54.309Z,27.03
2023-05-15T11:35:30.934Z,25.80
2023-05-15T11:37:58.824Z,25.03
2023-05-15T11:40:43.988Z,29.50
2023-05-15T11:43:19.264Z,26.33
2023-05-15T11:45:52.778Z,23.50
2023-05-15T11:48:19.929Z,28.17
2023-05-15T11:50:46.809Z,23.20
2023-05-15T11:53:14.614Z,24.57
2023-05-15T11:55:43.628Z,21.33
2023-05-15T11:58:18.106Z,20.17
2023-05-15T12:00:46.798Z,22.93
2023-05-15T12:03:25.429Z,25.60
2023-05-15T12:05:59.683Z,18.07
2023-05-15T12:08:32.189Z,18.27
2023-05-15T12:11:00.306Z,19.10
2023-05-15T12:13:27.188Z,17.93
2023-05-15T12:15:55.157Z,17.33
2023-05-15T12:18:21.766Z,19.00
2023-05-15T12:20:49.650Z,14.37
2023-05-15T12:23:17.357Z,12.77
2023-05-15T12:25:46.693Z,12.93
2023-05-15T12:28:14.416Z,14.70
2023-05-15T12:30:42.798Z,15.10
2023-05-15T12:33:10.760Z,18.93
2023-05-15T12:35:42.621Z,15.30
2023-05-15T12:38:13.656Z,16.00
2023-05-15T12:40:40.701Z,16.40
2023-05-15T12:43:07.949Z,17.30
2023-05-15T12:45:38.140Z,20.30
2023-05-15T12:48:05.716Z,14.30
2023-05-15T12:50:34.239Z,12.57
2023-05-15T12:53:02.974Z,15.70
2023-05-15T12:55:36.593Z,13.03
2023-05-15T12:58:07.838Z,14.87
2023-05-15T13:00:35.856Z,12.47
2023-05-15T13:03:03.914Z,15.90
2023-05-15T13:05:35.135Z,12.77
2023-05-15T13:08:04.025Z,12.77
2023-05-15T13:10:36.269Z,15.40
2023-05-15T13:13:03.106Z,12.13
2023-05-15T13:15:41.972Z,10.80
2023-05-15T13:18:14.237Z,13.70
2023-05-15T13:20:46.147Z,17.40
2023-05-15T13:23:18.999Z,16.97
2023-05-15T13:25:45.694Z,14.80
2023-05-15T13:28:13.295Z,14.23
2023-05-15T13:30:43.329Z,13.67
2023-05-15T13:33:11.762Z,10.60
2023-05-15T13:35:39.418Z,12.73
2023-05-15T13:38:07.071Z,11.73
2023-05-15T13:40:37.774Z,9.73
2023-05-15T13:43:06.354Z,12.47
2023-05-15T13:45:33.049Z,12.50
2023-05-15T13:47:59.905Z,9.23
2023-05-15T13:50:26.887Z,11.23
2023-05-15T13:52:54.395Z,10.93
2023-05-15T13:55:22.913Z,12.03
2023-05-15T13:57:49.844Z,12.30
2023-05-15T14:00:17.212Z,13.43
2023-05-15T14:02:44.699Z,11.27
2023-05-15T14:05:13.380Z,11.00
2023-05-15T14:07:40.590Z,13.00
2023-05-15T14:10:08.010Z,11.47
2023-05-15T14:12:34.862Z,20.80
2023-05-15T14:15:01.457Z,15.57
2023-05-15T14:17:28.779Z,12.37
2023-05-15T14:19:55.451Z,11.80
2023-05-15T14:22:24.759Z,15.63
2023-05-15T14:24:52.761Z,11.50
2023-05-15T14:27:19.624Z,11.83
2023-05-15T14:29:48.148Z,12.20
2023-05-15T14:32:15.909Z,16.80
2023-05-15T14:34:42.695Z,12.13
2023-05-15T14:37:09.410Z,13.23
2023-05-15T14:39:35.989Z,15.83
2023-05-15T14:42:02.558Z,13.97
2023-05-15T14:44:29.131Z,18.17
2023-05-15T14:47:12.618Z,17.70
2023-05-15T14:49:39.928Z,17.07
2023-05-15T14:52:08.952Z,15.83
2023-05-15T14:54:35.951Z,16.73
2023-05-15T14:57:03.543Z,14.90
2023-05-15T14:59:30.480Z,13.80
2023-05-15T15:01:57.514Z,14.03
2023-05-15T15:04:24.214Z,14.27
2023-05-15T15:06:50.907Z,17.23
2023-05-15T15:09:20.297Z,19.43
2023-05-15T15:11:47.763Z,19.90
2023-05-15T15:14:14.346Z,22.80
2023-05-15T15:16:41.360Z,20.47
2023-05-15T15:19:08.237Z,19.73
2023-05-15T15:21:36.399Z,20.93
2023-05-15T15:24:03.075Z,20.73
2023-05-15T15:26:29.860Z,20.20
2023-05-15T15:29:00.700Z,20.37
2023-05-15T15:31:30.682Z,20.67
2023-05-15T15:33:57.936Z,25.97
2023-05-15T15:36:25.385Z,22.87
2023-05-15T15:38:52.330Z,25.70
2023-05-15T15:41:21.080Z,22.80
2023-05-15T15:43:47.914Z,24.50
2023-05-15T15:46:14.776Z,23.30
2023-05-15T15:48:41.613Z,21.20
2023-05-15T15:51:08.345Z,20.80
2023-05-15T15:53:35.019Z,22.60
2023-05-15T15:56:01.708Z,21.93
2023-05-15T15:58:29.328Z,21.63
2023-05-15T16:00:56.044Z,21.37
2023-05-15T16:03:22.750Z,22.87
2023-05-15T16:05:49.438Z,19.60
2023-05-15T16:08:16.034Z,24.80
2023-05-15T16:10:42.722Z,19.60
2023-05-15T16:13:10.300Z,23.47
2023-05-15T16:15:36.921Z,23.20
2023-05-15T16:18:03.586Z,18.90
2023-05-15T16:20:30.289Z,19.47
2023-05-15T16:22:56.958Z,21.30
2023-05-15T16:25:23.605Z,18.40
2023-05-15T16:27:50.346Z,20.60
2023-05-15T16:30:17.155Z,18.40
2023-05-15T16:32:43.945Z,20.60
2023-05-15T16:35:10.616Z,25.20
2023-05-15T16:37:37.278Z,26.33
2023-05-15T16:40:04.285Z,25.63
2023-05-15T16:42:36.189Z,25.30
2023-05-15T16:45:03.270Z,28.67
2023-05-15T16:47:29.921Z,26.83
2023-05-15T16:49:56.773Z,27.63
2023-05-15T16:52:23.429Z,28.23
2023-05-15T16:54:50.377Z,29.10
2023-05-15T16:57:16.944Z,32.53
2023-05-15T16:59:43.587Z,29.83
2023-05-15T17:02:10.356Z,29.60
2023-05-15T17:04:37.544Z,28.03
2023-05-15T17:07:05.134Z,29.20
2023-05-15T17:09:32.663Z,30.70
2023-05-15T17:11:59.601Z,27.47
2023-05-15T17:14:26.505Z,29.43
2023-05-15T17:16:53.093Z,31.27
2023-05-15T17:19:19.789Z,29.90
2023-05-15T17:21:46.582Z,29.00
2023-05-15T17:24:15.735Z,34.00
2023-05-15T17:26:42.452Z,33.73
2023-05-15T17:29:10.709Z,30.93
2023-05-15T17:31:38.796Z,31.33
2023-05-15T17:34:05.494Z,30.70
2023-05-15T17:36:33.528Z,28.67
2023-05-15T17:39:00.495Z,28.20
2023-05-15T17:41:27.146Z,28.40
2023-05-15T17:43:53.795Z,35.73
2023-05-15T17:46:20.651Z,26.30
2023-05-15T17:48:47.345Z,26.40
2023-05-15T17:51:13.950Z,27.50
2023-05-15T17:53:40.569Z,25.80
2023-05-15T17:56:07.205Z,27.73
2023-05-15T17:58:33.822Z,29.87
2023-05-15T18:01:00.875Z,28.20
2023-05-15T18:03:27.585Z,28.33
2023-05-15T18:05:54.348Z,23.17
2023-05-15T18:08:21.308Z,22.90
2023-05-15T18:10:47.897Z,24.37
2023-05-15T18:13:14.615Z,28.07
2023-05-15T18:15:41.259Z,28.13
2023-05-15T18:18:07.937Z,26.33
2023-05-15T18:20:34.774Z,24.43
2023-05-15T18:23:01.464Z,29.50
2023-05-15T18:25:28.201Z,28.57
2023-05-15T18:27:55.227Z,28.40
2023-05-15T18:30:21.978Z,31.97
2023-05-15T18:32:48.630Z,27.20
2023-05-15T18:35:15.380Z,32.00
2023-05-15T18:37:42.151Z,32.23
2023-05-15T18:40:09.478Z,34.87
2023-05-15T18:42:36.074Z,31.00
2023-05-15T18:45:03.041Z,35.10
2023-05-15T18:47:29.691Z,33.37
2023-05-15T18:49:56.890Z,35.00
2023-05-15T18:52:23.681Z,34.20
2023-05-15T18:54:52.358Z,35.10
2023-05-15T18:57:18.967Z,33.87
2023-05-15T18:59:45.601Z,34.67
2023-05-15T19:02:12.759Z,37.57
2023-05-15T19:04:39.639Z,37.50
2023-05-15T19:07:06.439Z,35.83
2023-05-15T19:09:33.092Z,32.23
2023-05-15T19:12:00.209Z,34.23
2023-05-15T19:14:26.807Z,32.67
2023-05-15T19:16:53.511Z,34.43
2023-05-15T19:19:20.362Z,32.47
2023-05-15T19:21:47.528Z,27.73
2023-05-15T19:24:14.155Z,22.50
2023-05-15T19:26:40.839Z,26.63
2023-05-15T19:29:07.459Z,23.00
2023-05-15T19:31:34.247Z,25.17
2023-05-15T19:34:01.351Z,30.53
2023-05-15T19:36:27.976Z,27.20
2023-05-15T19:38:54.638Z,29.60
2023-05-15T19:41:22.198Z,28.20
2023-05-15T19:43:50.676Z,26.10
2023-05-15T19:46:18.465Z,25.27
2023-05-15T19:48:45.660Z,30.90
2023-05-15T19:51:12.537Z,26.40
2023-05-15T19:53:39.367Z,26.37
2023-05-15T19:56:06.372Z,30.63
2023-05-15T19:58:33.021Z,30.37
2023-05-15T20:00:59.716Z,30.33
2023-05-15T20:03:32.564Z,37.30
2023-05-15T20:06:03.022Z,35.00
2023-05-15T20:08:30.158Z,36.77
2023-05-15T20:10:57.548Z,34.90
2023-05-15T20:13:24.312Z,38.17
2023-05-15T20:15:58.986Z,32.40
2023-05-15T20:18:30.377Z,33.03
2023-05-15T20:20:59.083Z,31.63
2023-05-15T20:23:25.734Z,29.00
2023-05-15T20:25:52.879Z,36.00
2023-05-15T20:28:19.852Z,33.00
2023-05-15T20:30:49.302Z,32.10
2023-05-15T20:33:16.057Z,28.67
2023-05-15T20:35:43.315Z,28.90
2023-05-15T20:38:10.368Z,27.77
2023-05-15T20:40:37.184Z,31.13
2023-05-15T20:43:03.998Z,34.20
2023-05-15T20:45:32.106Z,34.33
2023-05-15T20:47:58.990Z,30.10
2023-05-15T20:50:26.044Z,33.57
2023-05-15T20:52:53.087Z,30.73
2023-05-15T20:55:21.377Z,34.60
2023-05-15T20:57:48.996Z,32.47
2023-05-15T21:00:16.954Z,28.50
2023-05-15T21:02:44.257Z,28.80
2023-05-15T21:05:10.979Z,27.33
2023-05-15T21:07:37.719Z,30.73
2023-05-15T21:10:04.866Z,25.37
2023-05-15T21:12:32.641Z,29.20
2023-05-15T21:14:59.354Z,25.50
2023-05-15T21:17:25.984Z,28.83
2023-05-15T21:19:52.789Z,26.33
2023-05-15T21:22:19.426Z,25.23
2023-05-15T21:24:46.193Z,27.97
2023-05-15T21:27:12.838Z,29.27
2023-05-15T21:29:39.487Z,22.07
2023-05-15T21:32:06.755Z,23.27
2023-05-15T21:34:33.396Z,25.57
2023-05-15T21:37:00.035Z,24.97
2023-05-15T21:39:26.633Z,24.03
2023-05-15T21:41:53.241Z,20.83
2023-05-15T21:44:19.838Z,25.97
2023-05-15T21:46:46.538Z,21.43
2023-05-15T21:49:13.195Z,21.33
2023-05-15T21:51:40.070Z,22.93
2023-05-15T21:54:06.659Z,20.60
2023-05-15T21:56:33.282Z,18.20
2023-05-15T21:58:59.874Z,18.07
2023-05-15T22:01:26.503Z,20.43
2023-05-15T22:03:53.223Z,20.27
2023-05-15T22:06:19.902Z,23.03
2023-05-15T22:08:46.537Z,21.27
2023-05-15T22:11:13.189Z,21.67
2023-05-15T22:13:39.832Z,25.17
2023-05-15T22:16:06.512Z,21.37
2023-05-15T22:18:34.754Z,26.80
2023-05-15T22:21:02.938Z,23.40
2023-05-15T22:23:29.689Z,24.00
2023-05-15T22:25:56.249Z,26.33
2023-05-15T22:28:22.859Z,27.63
2023-05-15T22:30:49.924Z,24.87
2023-05-15T22:33:16.657Z,30.03
2023-05-15T22:35:43.363Z,21.80
2023-05-15T22:38:10.136Z,22.40
2023-05-15T22:40:36.731Z,26.83
2023-05-15T22:43:03.789Z,22.83
2023-05-15T22:45:30.516Z,15.80
2023-05-15T22:47:57.198Z,22.00
2023-05-15T22:50:23.910Z,19.83
2023-05-15T22:52:51.151Z,22.23
2023-05-15T22:55:17.830Z,19.47
2023-05-15T22:57:44.781Z,21.57
2023-05-15T23:00:12.063Z,28.20
2023-05-15T23:02:39.645Z,18.27
2023-05-15T23:05:07.506Z,18.60
2023-05-15T23:07:34.125Z,19.97
2023-05-15T23:10:00.814Z,18.30
2023-05-15T23:12:27.445Z,22.20
2023-05-15T23:14:54.084Z,25.07
2023-05-15T23:17:20.725Z,25.60
2023-05-15T23:19:47.343Z,22.90
2023-05-15T23:22:13.920Z,21.73
2023-05-15T23:24:40.570Z,23.57
2023-05-15T23:27:07.760Z,21.67
2023-05-15T23:29:34.358Z,20.70
2023-05-15T23:32:01.046Z,22.03
2023-05-15T23:34:28.397Z,21.33
2023-05-15T23:36:55.033Z,28.07
2023-05-15T23:39:21.697Z,24.43
2023-05-15T23:41:48.359Z,25.13
2023-05-15T23:44:14.950Z,30.83
2023-05-15T23:46:41.630Z,25.40
2023-05-15T23:49:08.234Z,21.70
2023-05-15T23:51:35.149Z,30.60
2023-05-15T23:54:01.736Z,26.00
2023-05-15T23:56:28.319Z,24.53
2023-05-15T23:58:55.117Z,25.20
